createdAt,value
2023-03-31T00:03:11.858Z,6.47
2023-03-31T00:08:15.030Z,9.05
2023-03-31T00:13:17.724Z,5.88
2023-03-31T00:18:20.052Z,7.15
2023-03-31T00:23:28.462Z,5.93
2023-03-31T00:28:30.738Z,4.20
2023-03-31T00:33:33.140Z,4.85
2023-03-31T00:38:35.960Z,4.88
2023-03-31T00:43:39.395Z,5.38
2023-03-31T00:48:51.879Z,6.03
2023-03-31T00:54:00.311Z,5.07
2023-03-31T00:59:08.329Z,10.55
2023-03-31T01:04:13.113Z,6.32
2023-03-31T01:09:17.631Z,6.88
2023-03-31T01:14:20.161Z,7.13
2023-03-31T01:19:46.921Z,5.63
2023-03-31T01:25:16.677Z,6.18
2023-03-31T01:30:27.901Z,9.32
2023-03-31T01:41:01.274Z,8.82
2023-03-31T01:46:16.151Z,10.15
2023-03-31T01:51:33.609Z,8.73
2023-03-31T01:56:41.701Z,8.18
2023-03-31T02:01:52.837Z,8.02
2023-03-31T02:07:02.632Z,11.77
2023-03-31T02:12:09.928Z,6.68
2023-03-31T02:17:18.609Z,13.32
2023-03-31T02:22:24.417Z,13.00
2023-03-31T02:27:32.100Z,8.02
2023-03-31T02:32:40.103Z,6.97
2023-03-31T02:37:43.622Z,8.45
2023-03-31T02:42:49.170Z,9.18
2023-03-31T02:47:51.475Z,13.27
2023-03-31T02:53:07.557Z,11.57
2023-03-31T02:58:45.361Z,9.65
2023-03-31T03:04:09.785Z,13.05
2023-03-31T03:09:32.192Z,12.15
2023-03-31T03:14:47.670Z,11.27
2023-03-31T03:20:01.303Z,6.47
2023-03-31T03:25:07.903Z,9.43
2023-03-31T03:30:13.282Z,7.82
2023-03-31T03:35:15.808Z,7.07
2023-03-31T03:40:18.695Z,7.75
2023-03-31T03:45:21.148Z,7.32
2023-03-31T03:50:23.978Z,10.02
2023-03-31T03:55:26.230Z,9.80
2023-03-31T04:00:28.414Z,8.95
2023-03-31T04:05:31.144Z,9.63
2023-03-31T04:10:33.522Z,11.65
2023-03-31T04:15:35.717Z,22.40
2023-03-31T04:20:38.180Z,22.65
2023-03-31T04:25:46.430Z,33.65
2023-03-31T04:30:49.395Z,100.10
2023-03-31T04:35:53.065Z,115.30
2023-03-31T04:40:56.626Z,124.00
2023-03-31T04:45:58.849Z,74.30
2023-03-31T04:51:01.575Z,21.80
2023-03-31T04:56:04.747Z,26.65
2023-03-31T05:01:07.345Z,22.13
2023-03-31T05:06:09.862Z,30.90
2023-03-31T05:11:12.205Z,25.48
2023-03-31T05:16:15.166Z,26.13
2023-03-31T05:21:20.150Z,16.80
2023-03-31T05:26:26.525Z,16.60
2023-03-31T05:31:29.158Z,24.55
2023-03-31T05:36:32.486Z,25.40
2023-03-31T05:41:34.704Z,26.15
2023-03-31T05:46:37.193Z,38.17
2023-03-31T05:51:39.662Z,45.72
2023-03-31T05:56:41.913Z,28.08
2023-03-31T06:01:44.389Z,12.60
2023-03-31T06:06:50.584Z,6.70
2023-03-31T06:11:53.113Z,11.02
2023-03-31T06:16:57.684Z,8.18
2023-03-31T06:22:00.156Z,16.65
2023-03-31T06:27:04.141Z,16.80
2023-03-31T06:32:06.842Z,13.85
2023-03-31T06:37:11.601Z,9.27
2023-03-31T06:42:13.781Z,8.23
2023-03-31T06:47:16.438Z,43.13
2023-03-31T06:52:21.058Z,32.17
2023-03-31T06:57:23.313Z,35.90
2023-03-31T07:02:25.806Z,20.40
2023-03-31T07:07:31.239Z,28.30
2023-03-31T07:12:34.479Z,8.10
2023-03-31T07:17:37.835Z,22.73
2023-03-31T07:22:41.715Z,12.30
2023-03-31T07:27:44.760Z,13.93
2023-03-31T07:32:49.144Z,5.70
2023-03-31T07:37:52.358Z,6.50
2023-03-31T07:42:55.513Z,6.43
2023-03-31T07:47:57.990Z,12.25
2023-03-31T07:53:00.472Z,5.60
2023-03-31T07:58:03.323Z,7.18
2023-03-31T08:03:06.475Z,4.57
2023-03-31T08:08:09.285Z,5.53
2023-03-31T08:13:11.619Z,3.33
2023-03-31T08:18:14.634Z,7.57
2023-03-31T08:23:17.375Z,6.80
2023-03-31T08:28:19.898Z,15.02
2023-03-31T08:33:22.225Z,106.75
2023-03-31T08:38:24.500Z,6.15
2023-03-31T08:43:35.187Z,11.93
2023-03-31T08:48:49.257Z,10.60
2023-03-31T08:54:00.254Z,7.75
2023-03-31T08:59:03.223Z,8.18
2023-03-31T09:04:24.614Z,7.63
2023-03-31T09:09:36.389Z,11.98
2023-03-31T09:14:44.761Z,4.82
2023-03-31T09:19:59.661Z,6.43
2023-03-31T09:25:11.122Z,5.70
2023-03-31T09:30:23.057Z,10.95
2023-03-31T09:35:27.018Z,6.85
2023-03-31T09:40:30.310Z,9.05
2023-03-31T09:45:34.410Z,9.35
2023-03-31T09:50:53.305Z,5.85
2023-03-31T09:56:02.451Z,8.25
2023-03-31T10:01:07.386Z,6.93
2023-03-31T10:06:12.654Z,8.85
2023-03-31T10:11:15.734Z,6.63
2023-03-31T10:16:31.498Z,7.65
2023-03-31T10:21:37.326Z,10.13
2023-03-31T10:26:41.634Z,6.03
2023-03-31T10:31:44.599Z,11.48
2023-03-31T10:36:49.529Z,8.13
2023-03-31T10:41:53.712Z,7.72
2023-03-31T10:46:56.167Z,7.72
2023-03-31T10:52:01.650Z,7.57
2023-03-31T10:57:06.517Z,14.70
2023-03-31T11:02:21.714Z,11.40
2023-03-31T11:07:30.192Z,9.90
2023-03-31T11:12:45.210Z,7.53
2023-03-31T11:17:56.593Z,7.82
2023-03-31T11:23:32.872Z,24.13
2023-03-31T11:28:54.059Z,9.52
2023-03-31T11:34:30.418Z,13.18
2023-03-31T11:40:10.284Z,7.20
2023-03-31T11:45:28.186Z,10.65
2023-03-31T11:50:40.431Z,14.27
2023-03-31T11:55:49.748Z,6.55
2023-03-31T12:00:57.697Z,8.82
2023-03-31T12:06:17.762Z,7.35
2023-03-31T12:11:43.635Z,11.30
2023-03-31T12:16:49.693Z,6.25
2023-03-31T12:22:01.206Z,6.80
2023-03-31T12:27:15.692Z,7.00
2023-03-31T12:32:22.611Z,11.68
2023-03-31T12:38:12.499Z,6.95
2023-03-31T12:43:25.600Z,8.70
2023-03-31T12:49:07.050Z,5.60
2023-03-31T12:54:38.542Z,9.25
2023-03-31T12:59:46.138Z,8.05
2023-03-31T13:04:50.038Z,8.52
2023-03-31T13:10:14.834Z,5.43
2023-03-31T13:15:18.306Z,4.95
2023-03-31T13:20:44.902Z,8.63
2023-03-31T13:25:57.735Z,4.78
2023-03-31T13:31:22.359Z,5.30
2023-03-31T13:36:34.094Z,7.43
2023-03-31T13:42:04.443Z,5.13
2023-03-31T13:47:35.172Z,7.60
2023-03-31T13:52:59.571Z,5.75
2023-03-31T13:58:34.884Z,7.30
2023-03-31T14:04:12.177Z,2.97
2023-03-31T14:09:23.613Z,3.15
2023-03-31T14:14:27.637Z,8.88
2023-03-31T14:19:55.828Z,5.47
2023-03-31T14:25:26.765Z,6.90
2023-03-31T14:30:39.019Z,6.47
2023-03-31T14:36:09.095Z,7.97
2023-03-31T14:41:30.050Z,27.23
2023-03-31T14:51:35.974Z,27.05
2023-03-31T14:56:42.993Z,22.38
2023-03-31T15:01:48.333Z,10.02
2023-03-31T15:06:51.938Z,7.32
2023-03-31T15:12:01.367Z,4.85
2023-03-31T15:17:04.552Z,6.85
2023-03-31T15:22:16.651Z,8.25
2023-03-31T15:27:38.186Z,5.95
2023-03-31T15:32:41.391Z,6.35
2023-03-31T15:37:44.949Z,6.03
2023-03-31T15:43:01.599Z,6.68
2023-03-31T15:48:22.074Z,7.38
2023-03-31T15:53:29.378Z,21.02
2023-03-31T16:04:14.881Z,14.23
2023-03-31T16:09:29.448Z,13.85
2023-03-31T16:14:37.572Z,11.23
2023-03-31T16:19:52.571Z,15.10
2023-03-31T16:24:56.181Z,13.57
2023-03-31T16:30:23.675Z,9.27
2023-03-31T16:35:44.264Z,41.55
2023-03-31T16:40:59.204Z,38.13
2023-03-31T16:46:06.543Z,8.43
2023-03-31T16:51:31.891Z,14.10
2023-03-31T16:56:43.911Z,9.80
2023-03-31T17:01:46.574Z,26.48
2023-03-31T17:06:48.940Z,35.75
2023-03-31T17:11:51.389Z,66.82
2023-03-31T17:16:53.943Z,67.15
2023-03-31T17:21:56.387Z,24.50
2023-03-31T17:26:58.806Z,34.10
2023-03-31T17:32:01.585Z,14.45
2023-03-31T17:37:04.001Z,14.65
2023-03-31T17:42:06.513Z,20.77
2023-03-31T17:47:09.182Z,13.20
2023-03-31T17:52:14.111Z,13.07
2023-03-31T17:57:17.123Z,17.05
2023-03-31T18:02:20.045Z,25.35
2023-03-31T18:07:23.602Z,16.63
2023-03-31T18:12:26.567Z,19.73
2023-03-31T18:17:29.931Z,19.10
2023-03-31T18:22:38.376Z,20.27
2023-03-31T18:27:41.057Z,26.17
2023-03-31T18:32:44.193Z,25.95
2023-03-31T18:37:46.703Z,31.80
2023-03-31T18:42:49.453Z,27.05
2023-03-31T18:47:52.104Z,18.70
2023-03-31T18:52:54.975Z,17.55
2023-03-31T18:57:58.406Z,14.85
2023-03-31T19:03:00.964Z,17.73
2023-03-31T19:08:10.069Z,16.63
2023-03-31T19:13:18.543Z,25.35
2023-03-31T19:18:28.100Z,14.07
2023-03-31T19:23:32.281Z,19.73
2023-03-31T19:28:34.787Z,15.52
2023-03-31T19:33:37.143Z,14.15
2023-03-31T19:38:42.642Z,13.55
2023-03-31T19:43:47.996Z,16.50
2023-03-31T19:48:50.423Z,11.00
2023-03-31T19:53:56.614Z,13.25
2023-03-31T19:59:00.019Z,13.75
2023-03-31T20:04:03.061Z,18.33
2023-03-31T20:09:06.870Z,18.08
2023-03-31T20:14:10.986Z,20.75
2023-03-31T20:19:15.834Z,11.93
2023-03-31T20:24:19.636Z,13.73
2023-03-31T20:29:25.516Z,13.70
2023-03-31T20:34:27.996Z,14.32
2023-03-31T20:39:30.525Z,50.20
2023-03-31T20:44:33.093Z,16.92
2023-03-31T20:49:35.558Z,17.40
2023-03-31T20:54:49.332Z,18.85
2023-03-31T20:59:56.631Z,18.45
2023-03-31T21:04:59.595Z,21.08
2023-03-31T21:10:07.218Z,18.63
2023-03-31T21:15:10.492Z,16.35
2023-03-31T21:20:16.265Z,14.85
2023-03-31T21:25:26.226Z,15.57
2023-03-31T21:30:31.697Z,14.73
2023-03-31T21:35:38.126Z,16.08
2023-03-31T21:40:49.415Z,13.57
2023-03-31T21:45:53.678Z,15.27
2023-03-31T21:51:00.336Z,15.48
2023-03-31T21:56:03.101Z,12.85
2023-03-31T22:01:10.906Z,11.40
2023-03-31T22:06:13.760Z,14.77
2023-03-31T22:11:16.387Z,14.55
2023-03-31T22:16:21.390Z,15.30
2023-03-31T22:21:28.036Z,16.98
2023-03-31T22:26:37.086Z,14.65
2023-03-31T22:31:39.775Z,14.38
2023-03-31T22:36:42.351Z,18.70
2023-03-31T22:41:45.617Z,16.60
2023-03-31T22:46:48.089Z,19.15
2023-03-31T22:51:53.343Z,18.08
2023-03-31T22:56:55.843Z,13.60
2023-03-31T23:02:01.040Z,14.30
2023-03-31T23:07:03.515Z,17.92
2023-03-31T23:17:31.658Z,19.27
2023-03-31T23:22:39.938Z,17.38
2023-03-31T23:27:45.285Z,19.27
2023-03-31T23:32:47.904Z,20.67
2023-03-31T23:37:50.152Z,18.50
2023-03-31T23:42:52.779Z,18.65
2023-03-31T23:47:59.096Z,16.33
2023-03-31T23:53:02.943Z,16.80
2023-03-31T23:58:06.783Z,16.27
